Time;durP1;ratioP1;P1;durP2;ratioP2;P2;SDS_P1;SDS_P2;PMS_P1;PMS_P2;Temp;Humidity;BMP_temperature;BMP_pressure;BME280_temperature;BME280_humidity;BME280_pressure;Samples;Min_cycle;Max_cycle;Signal;HPM_P1;HPM_P2
2021/12/17 00:05:00;;;;;;;14.37;8.77;;;7.70;99.90;;;;;;5127117;27;20514;-81
2021/12/17 00:07:29;;;;;;;15.07;8.33;;;7.70;99.90;;;;;;5123324;27;20448;-80
2021/12/17 00:09:58;;;;;;;20.20;9.30;;;7.70;99.90;;;;;;5123264;27;20532;-81
2021/12/17 00:12:27;;;;;;;22.97;9.40;;;7.70;99.90;;;;;;5126869;27;20487;-82
2021/12/17 00:14:54;;;;;;;23.33;8.87;;;7.60;99.90;;;;;;5126886;27;20472;-82
2021/12/17 00:17:26;;;;;;;19.30;8.27;;;7.60;99.90;;;;;;5113936;27;20544;-82
2021/12/17 00:20:16;;;;;;;14.10;8.37;;;7.60;99.90;;;;;;5123205;27;20450;-82
2021/12/17 00:50:24;;;;;;;20.13;8.83;;;7.50;99.90;;;;;;5124094;27;20769;-82
2021/12/17 00:52:51;;;;;;;22.70;8.13;;;7.50;99.90;;;;;;5126100;27;20442;-81
2021/12/17 00:55:18;;;;;;;10.20;8.30;;;7.50;99.90;;;;;;5120342;27;20863;-82
2021/12/17 00:57:45;;;;;;;16.67;7.73;;;7.60;99.90;;;;;;5104973;27;20552;-81
2021/12/17 01:00:18;;;;;;;17.10;8.07;;;7.50;99.90;;;;;;5121907;27;20442;-82
2021/12/17 01:02:45;;;;;;;19.30;9.27;;;7.50;99.90;;;;;;5120650;27;20448;-81
2021/12/17 01:05:14;;;;;;;21.80;9.00;;;7.50;99.90;;;;;;5125372;27;20472;-82
2021/12/17 01:07:47;;;;;;;18.50;8.20;;;7.50;99.90;;;;;;5120401;27;20473;-82
2021/12/17 01:10:17;;;;;;;14.00;8.20;;;7.50;99.90;;;;;;5122993;27;20454;-82
2021/12/17 01:12:44;;;;;;;16.47;8.53;;;7.50;99.90;;;;;;5120288;27;20526;-82
2021/12/17 01:15:15;;;;;;;17.70;10.02;;;7.50;99.90;;;;;;5124949;27;20453;-82
2021/12/17 01:17:44;;;;;;;18.40;8.60;;;7.50;99.90;;;;;;5125924;27;20192;-82
2021/12/17 01:20:28;;;;;;;13.80;7.97;;;7.50;99.90;;;;;;5124396;27;20444;-82
2021/12/17 01:23:20;;;;;;;11.77;7.63;;;7.50;99.90;;;;;;5122708;27;20234;-82
2021/12/17 01:37:00;;;;;;;14.57;7.70;;;7.40;99.90;;;;;;5125164;27;20448;-82
2021/12/17 01:40:32;;;;;;;20.23;7.77;;;7.40;99.90;;;;;;5119242;27;20567;-83
2021/12/17 01:42:28;;;;;;;15.73;7.70;;;7.40;99.90;;;;;;5121341;27;20436;-81
2021/12/17 01:44:55;;;;;;;17.83;8.07;;;7.40;99.90;;;;;;5118665;27;20600;-81
2021/12/17 01:47:23;;;;;;;12.77;7.00;;;7.40;99.90;;;;;;5126557;27;20504;-82
2021/12/17 02:00:50;;;;;;;20.80;8.60;;;7.40;99.90;;;;;;5117716;27;20441;-81
2021/12/17 02:03:18;;;;;;;19.27;8.60;;;7.40;99.90;;;;;;5125136;27;20482;-82
2021/12/17 02:05:45;;;;;;;16.70;7.43;;;7.40;99.90;;;;;;5122046;27;20943;-82
2021/12/17 02:08:12;;;;;;;12.83;6.27;;;7.40;99.90;;;;;;5123376;27;20446;-82
2021/12/17 02:11:16;;;;;;;23.33;7.80;;;7.40;99.90;;;;;;5124333;27;20441;-82
2021/12/17 02:19:42;;;;;;;18.57;7.20;;;7.40;99.90;;;;;;5123506;27;20508;-81
2021/12/17 02:30:50;;;;;;;11.87;5.33;;;7.40;99.90;;;;;;5123330;27;20428;-81
2021/12/17 02:33:19;;;;;;;15.80;6.90;;;7.40;99.90;;;;;;5121153;27;20530;-81
2021/12/17 02:35:47;;;;;;;20.40;8.87;;;7.40;99.90;;;;;;5121056;27;20444;-81
2021/12/17 02:38:16;;;;;;;15.90;7.50;;;7.40;99.90;;;;;;5122805;27;20457;-82
2021/12/17 02:46:11;;;;;;;16.10;6.40;;;7.50;99.90;;;;;;5122968;27;20472;-84
2021/12/17 02:48:42;;;;;;;19.33;6.80;;;7.40;99.90;;;;;;5121522;27;20478;-84
2021/12/17 02:51:10;;;;;;;11.50;6.10;;;7.40;99.90;;;;;;5123333;27;20445;-84
2021/12/17 02:53:38;;;;;;;12.20;6.47;;;7.40;99.90;;;;;;5124819;27;20440;-81
2021/12/17 02:56:08;;;;;;;15.13;6.40;;;7.30;99.90;;;;;;5123331;27;20468;-81
2021/12/17 02:58:36;;;;;;;20.53;7.70;;;7.20;99.90;;;;;;5123976;27;20555;-82
2021/12/17 03:01:06;;;;;;;22.63;6.47;;;7.30;99.90;;;;;;5122859;28;20489;-82
2021/12/17 03:03:34;;;;;;;14.63;6.03;;;7.20;99.90;;;;;;5120326;28;20473;-82
2021/12/17 03:06:02;;;;;;;13.47;5.77;;;7.30;99.90;;;;;;5120877;28;20533;-82
2021/12/17 03:08:30;;;;;;;18.73;5.63;;;7.30;99.90;;;;;;5123923;28;21103;-82
2021/12/17 03:10:59;;;;;;;16.60;6.20;;;7.30;99.90;;;;;;5123916;27;20502;-82
2021/12/17 03:13:27;;;;;;;18.90;6.73;;;7.30;99.90;;;;;;5120436;27;20441;-81
2021/12/17 03:15:58;;;;;;;13.70;6.50;;;7.20;99.90;;;;;;5120434;27;20445;-82
2021/12/17 03:18:54;;;;;;;14.53;5.27;;;7.20;99.90;;;;;;5099443;28;20448;-83
2021/12/17 03:24:18;;;;;;;19.23;6.90;;;7.30;99.90;;;;;;5093419;27;20445;-82
2021/12/17 03:26:46;;;;;;;20.37;6.10;;;7.30;99.90;;;;;;5128259;27;20441;-82
2021/12/17 03:29:14;;;;;;;16.37;6.77;;;7.30;99.90;;;;;;5125160;27;20548;-82
2021/12/17 03:31:41;;;;;;;18.57;6.47;;;7.20;99.90;;;;;;5124317;27;20440;-82
2021/12/17 03:34:20;;;;;;;13.95;7.63;;;7.20;99.90;;;;;;5125815;27;20497;-83
2021/12/17 03:36:48;;;;;;;12.80;5.63;;;7.20;99.90;;;;;;5128001;27;20180;-83
2021/12/17 03:39:16;;;;;;;17.67;9.17;;;7.30;99.90;;;;;;5124317;27;20537;-82
2021/12/17 03:41:49;;;;;;;17.77;5.70;;;7.30;99.90;;;;;;5124357;27;20441;-81
2021/12/17 03:44:18;;;;;;;15.77;6.30;;;7.30;99.90;;;;;;5126590;27;20472;-82
2021/12/17 03:46:46;;;;;;;20.90;7.30;;;7.30;99.90;;;;;;5124921;27;20469;-81
2021/12/17 03:49:13;;;;;;;12.83;5.93;;;7.30;99.90;;;;;;5127196;27;20518;-81
2021/12/17 03:51:49;;;;;;;13.83;6.80;;;7.20;99.90;;;;;;5128356;27;20444;-81
2021/12/17 03:54:16;;;;;;;19.77;7.90;;;7.20;99.90;;;;;;5125588;27;20444;-81
2021/12/17 03:56:42;;;;;;;18.87;7.37;;;7.20;99.90;;;;;;5129576;27;20476;-81
2021/12/17 03:59:10;;;;;;;19.10;6.30;;;7.30;99.90;;;;;;5125336;27;20504;-81
2021/12/17 04:01:39;;;;;;;20.30;7.00;;;7.30;99.90;;;;;;5118470;27;20461;-81
2021/12/17 04:04:06;;;;;;;19.70;7.37;;;7.30;99.90;;;;;;5124774;27;20461;-81
2021/12/17 04:06:33;;;;;;;15.27;6.40;;;7.30;99.90;;;;;;5127257;27;20527;-81
2021/12/17 04:08:59;;;;;;;13.10;5.53;;;7.30;99.90;;;;;;5126461;27;20793;-81
2021/12/17 04:11:29;;;;;;;16.97;7.40;;;7.30;99.90;;;;;;5123350;27;20484;-82
2021/12/17 04:13:57;;;;;;;12.07;6.20;;;7.30;99.90;;;;;;5123646;27;20805;-83
2021/12/17 04:16:28;;;;;;;13.23;6.10;;;7.30;99.90;;;;;;5116450;27;20473;-83
2021/12/17 04:18:57;;;;;;;15.17;6.47;;;7.40;99.90;;;;;;5124040;27;20468;-82
2021/12/17 04:21:23;;;;;;;14.33;6.63;;;7.40;99.90;;;;;;5115155;27;20525;-82
2021/12/17 04:23:52;;;;;;;8.83;5.40;;;7.30;99.90;;;;;;5123629;27;20488;-82
2021/12/17 04:26:19;;;;;;;15.33;6.40;;;7.30;99.90;;;;;;5126282;27;20445;-81
2021/12/17 04:28:47;;;;;;;19.30;6.97;;;7.30;99.90;;;;;;5126964;27;20978;-81
2021/12/17 04:31:15;;;;;;;18.23;6.70;;;7.20;99.90;;;;;;5123697;27;20473;-81
2021/12/17 04:33:43;;;;;;;18.30;6.60;;;7.20;99.90;;;;;;5122382;27;20532;-81
2021/12/17 04:36:13;;;;;;;14.43;6.27;;;7.20;99.90;;;;;;5124994;27;20475;-81
2021/12/17 04:38:40;;;;;;;13.00;6.93;;;7.20;99.90;;;;;;5126646;27;20503;-80
2021/12/17 04:41:38;;;;;;;17.93;6.93;;;7.30;99.90;;;;;;5124755;27;20453;-80
2021/12/17 04:44:09;;;;;;;21.20;6.43;;;7.20;99.90;;;;;;5125415;27;20440;-80
2021/12/17 04:46:41;;;;;;;14.13;5.10;;;7.30;99.90;;;;;;5123784;27;20465;-81
2021/12/17 04:57:29;;;;;;;12.50;6.20;;;7.20;99.90;;;;;;5115708;27;20440;-81
2021/12/17 04:59:58;;;;;;;20.33;7.40;;;7.20;99.90;;;;;;5122707;27;20480;-81
2021/12/17 05:02:25;;;;;;;16.73;6.33;;;7.20;99.90;;;;;;5115716;27;20498;-80
2021/12/17 05:04:52;;;;;;;15.43;6.63;;;7.20;99.90;;;;;;5126269;27;20448;-80
2021/12/17 05:07:22;;;;;;;13.03;6.73;;;7.20;99.90;;;;;;5114044;27;20532;-81
2021/12/17 05:09:56;;;;;;;15.33;7.13;;;7.20;99.90;;;;;;5122664;27;20445;-80
2021/12/17 05:20:44;;;;;;;16.23;7.65;;;7.10;99.90;;;;;;5116939;27;20512;-80
2021/12/17 05:23:12;;;;;;;12.10;6.80;;;7.00;99.90;;;;;;5125269;27;20191;-82
2021/12/17 05:25:39;;;;;;;15.48;6.72;;;7.00;99.90;;;;;;5126302;27;20480;-81
2021/12/17 05:28:06;;;;;;;12.98;7.40;;;7.00;99.90;;;;;;5125554;27;20179;-82
2021/12/17 05:30:34;;;;;;;18.73;7.40;;;7.00;99.90;;;;;;5123106;27;20215;-82
2021/12/17 05:33:02;;;;;;;20.63;6.63;;;7.10;99.90;;;;;;5123712;27;20454;-81
2021/12/17 05:35:28;;;;;;;13.85;6.03;;;7.10;99.90;;;;;;5126167;27;20445;-82
2021/12/17 05:37:55;;;;;;;20.87;6.47;;;7.00;99.90;;;;;;5126313;27;20179;-81
2021/12/17 05:40:23;;;;;;;13.83;6.00;;;7.00;99.90;;;;;;5122561;27;20501;-81
2021/12/17 05:42:54;;;;;;;14.90;6.30;;;7.10;99.90;;;;;;5122736;27;20532;-81
2021/12/17 05:45:22;;;;;;;19.63;7.30;;;7.10;99.90;;;;;;5121788;27;20940;-80
2021/12/17 05:47:49;;;;;;;19.30;7.03;;;7.20;99.90;;;;;;5121576;27;20480;-80
2021/12/17 05:50:16;;;;;;;16.40;7.33;;;7.20;99.90;;;;;;5124400;27;20980;-79
2021/12/17 05:52:43;;;;;;;19.57;6.90;;;7.20;99.90;;;;;;5125028;27;20480;-79
2021/12/17 05:55:10;;;;;;;20.80;8.17;;;7.20;99.90;;;;;;5123020;27;20437;-80
2021/12/17 05:57:38;;;;;;;18.53;8.40;;;7.20;99.90;;;;;;5121480;27;21011;-81
2021/12/17 06:00:06;;;;;;;14.30;7.00;;;7.20;99.90;;;;;;5122558;27;20509;-79
2021/12/17 06:02:32;;;;;;;16.10;8.03;;;7.10;99.90;;;;;;5124947;27;20445;-80
2021/12/17 06:04:59;;;;;;;24.30;8.70;;;7.10;99.90;;;;;;5124270;27;20855;-82
2021/12/17 06:07:26;;;;;;;18.53;8.20;;;7.10;99.90;;;;;;5121003;27;20450;-81
2021/12/17 06:09:53;;;;;;;19.30;8.27;;;7.10;99.90;;;;;;5121643;27;20487;-81
2021/12/17 06:12:20;;;;;;;11.30;7.43;;;7.20;99.90;;;;;;5124362;27;20506;-82
2021/12/17 06:14:47;;;;;;;19.77;8.67;;;7.10;99.90;;;;;;5124996;27;20500;-82
2021/12/17 06:17:14;;;;;;;14.50;7.80;;;7.10;99.90;;;;;;5121848;27;20535;-82
2021/12/17 06:19:40;;;;;;;19.03;8.70;;;7.20;99.90;;;;;;5120967;27;20560;-83
2021/12/17 06:22:08;;;;;;;20.30;8.50;;;7.20;99.90;;;;;;5122346;27;20485;-83
2021/12/17 06:24:35;;;;;;;22.00;8.17;;;7.20;99.90;;;;;;5124813;27;20468;-82
2021/12/17 06:27:01;;;;;;;29.53;12.70;;;7.20;99.90;;;;;;5123547;27;20468;-82
2021/12/17 06:29:28;;;;;;;19.52;7.28;;;7.20;99.90;;;;;;5120926;27;20484;-83
2021/12/17 06:31:56;;;;;;;20.43;7.57;;;7.10;99.90;;;;;;5121017;27;20208;-82
2021/12/17 06:34:22;;;;;;;13.50;7.80;;;7.10;99.90;;;;;;5124080;27;20495;-83
2021/12/17 06:36:49;;;;;;;14.70;7.03;;;7.00;99.90;;;;;;5124568;27;20615;-82
2021/12/17 06:39:15;;;;;;;22.00;6.87;;;7.00;99.90;;;;;;5121022;27;20548;-82
2021/12/17 06:41:42;;;;;;;15.73;7.70;;;6.90;99.90;;;;;;5120647;27;20464;-82
2021/12/17 06:44:11;;;;;;;17.40;6.93;;;6.90;99.90;;;;;;5123268;27;20445;-83
2021/12/17 06:46:52;;;;;;;16.00;7.53;;;6.90;99.90;;;;;;5121090;27;20603;-83
2021/12/17 06:49:26;;;;;;;19.00;7.17;;;7.00;99.90;;;;;;5124696;27;20874;-82
2021/12/17 06:54:47;;;;;;;15.18;6.35;;;6.80;99.90;;;;;;5115430;27;20268;-83
2021/12/17 07:00:14;;;;;;;15.47;6.10;;;6.80;99.90;;;;;;5120605;27;20483;-83
2021/12/17 07:10:53;;;;;;;16.10;6.90;;;6.70;99.90;;;;;;5120683;28;20468;-83
2021/12/17 07:21:41;;;;;;;13.98;6.72;;;6.70;99.90;;;;;;5112970;28;20619;-80
2021/12/17 07:32:40;;;;;;;15.50;6.93;;;6.70;99.90;;;;;;5113802;28;20429;-80
2021/12/17 07:35:36;;;;;;;13.82;6.43;;;6.70;99.90;;;;;;5122987;28;20448;-80
2021/12/17 07:40:55;;;;;;;15.18;6.20;;;6.70;99.90;;;;;;5120763;28;20200;-81
2021/12/17 07:43:37;;;;;;;14.00;6.77;;;6.70;99.90;;;;;;5109273;28;20179;-80
2021/12/17 07:46:05;;;;;;;13.10;6.60;;;6.70;99.90;;;;;;5123623;27;20488;-82
2021/12/17 07:48:33;;;;;;;14.90;7.53;;;6.70;99.90;;;;;;5121010;27;20849;-81
2021/12/17 07:51:02;;;;;;;11.93;6.50;;;6.70;99.90;;;;;;5121624;28;20543;-81
2021/12/17 07:53:31;;;;;;;12.00;6.57;;;6.80;99.90;;;;;;5124061;27;20444;-81
2021/12/17 07:56:00;;;;;;;13.55;6.30;;;6.80;99.90;;;;;;5116182;28;20537;-83
2021/12/17 07:58:27;;;;;;;12.73;5.82;;;6.80;99.90;;;;;;5117811;28;20202;-80
2021/12/17 08:00:54;;;;;;;14.63;6.07;;;6.80;99.90;;;;;;5114807;28;20208;-80
2021/12/17 08:03:20;;;;;;;11.47;7.13;;;6.80;99.90;;;;;;5118126;28;20216;-83
2021/12/17 08:05:49;;;;;;;17.53;5.73;;;6.90;99.90;;;;;;5127103;28;20928;-81
2021/12/17 08:08:16;;;;;;;11.63;5.57;;;6.80;99.90;;;;;;5116214;27;20445;-80
2021/12/17 08:10:44;;;;;;;9.32;5.05;;;6.80;99.90;;;;;;5129869;27;20271;-80
2021/12/17 08:13:17;;;;;;;16.55;5.78;;;6.90;99.90;;;;;;5126199;27;20188;-80
2021/12/17 08:15:50;;;;;;;11.03;5.03;;;6.90;99.90;;;;;;5121679;27;20516;-80
2021/12/17 08:18:29;;;;;;;9.87;5.90;;;7.00;99.90;;;;;;5132598;27;20468;-80
2021/12/17 08:26:23;;;;;;;11.75;5.10;;;7.10;99.90;;;;;;5100551;27;20179;-80
2021/12/17 08:29:22;;;;;;;14.97;4.90;;;7.10;99.90;;;;;;5128776;27;20236;-80
2021/12/17 08:31:44;;;;;;;8.55;4.68;;;7.10;99.90;;;;;;5130553;27;20428;-81
2021/12/17 08:34:10;;;;;;;8.40;4.73;;;7.20;99.90;;;;;;5119187;27;20223;-80
2021/12/17 08:36:37;;;;;;;13.53;4.77;;;7.00;99.90;;;;;;5130529;27;20536;-79
2021/12/17 08:39:04;;;;;;;12.25;5.10;;;7.00;99.90;;;;;;5124877;27;20487;-81
2021/12/17 08:41:32;;;;;;;17.33;5.20;;;7.00;99.90;;;;;;5122638;27;20223;-81
2021/12/17 08:43:58;;;;;;;9.37;4.47;;;7.00;99.90;;;;;;5117410;27;20449;-81
2021/12/17 08:46:25;;;;;;;13.05;4.78;;;6.90;99.90;;;;;;5129461;27;20532;-80
2021/12/17 08:48:53;;;;;;;10.80;5.40;;;6.90;99.90;;;;;;5112576;27;20176;-80
2021/12/17 08:51:19;;;;;;;6.63;4.30;;;7.00;99.90;;;;;;5117249;27;20286;-81
2021/12/17 08:53:47;;;;;;;9.83;5.93;;;7.00;99.90;;;;;;5117689;27;20857;-80
2021/12/17 08:56:18;;;;;;;14.83;5.60;;;7.00;99.90;;;;;;5117772;27;20440;-80
2021/12/17 08:58:46;;;;;;;11.33;4.57;;;7.00;99.90;;;;;;5117202;27;20446;-80
2021/12/17 09:01:13;;;;;;;13.67;5.00;;;7.10;99.90;;;;;;5117049;27;20909;-80
2021/12/17 09:03:39;;;;;;;9.90;4.50;;;7.20;99.90;;;;;;5116853;27;20492;-81
2021/12/17 09:06:06;;;;;;;8.83;4.10;;;7.20;99.90;;;;;;5130612;27;20530;-81
2021/12/17 09:08:33;;;;;;;10.40;4.20;;;7.20;99.90;;;;;;5132595;27;20476;-80
2021/12/17 09:11:00;;;;;;;8.47;4.50;;;7.20;99.90;;;;;;5133042;27;20219;-81
2021/12/17 09:13:29;;;;;;;11.00;4.20;;;7.20;99.90;;;;;;5132755;27;20444;-80
2021/12/17 09:15:59;;;;;;;11.50;3.88;;;7.10;99.90;;;;;;5130700;27;20528;-80
2021/12/17 09:18:26;;;;;;;12.23;4.23;;;7.10;99.90;;;;;;5102203;27;20543;-81
2021/12/17 09:20:53;;;;;;;10.00;4.10;;;7.20;99.90;;;;;;5116431;27;20501;-81
2021/12/17 09:23:20;;;;;;;7.37;4.17;;;7.20;99.90;;;;;;5116452;27;20951;-81
2021/12/17 09:25:47;;;;;;;16.87;5.00;;;7.30;99.90;;;;;;5117432;27;20537;-81
2021/12/17 09:28:13;;;;;;;7.17;3.63;;;7.30;99.90;;;;;;5117818;27;20472;-81
2021/12/17 09:30:41;;;;;;;12.20;4.00;;;7.30;99.90;;;;;;5116398;27;20452;-80
2021/12/17 09:33:09;;;;;;;10.27;3.43;;;7.30;99.90;;;;;;5116511;27;20521;-81
2021/12/17 09:35:35;;;;;;;8.43;4.77;;;7.40;99.90;;;;;;5116298;27;20536;-81
2021/12/17 09:38:02;;;;;;;10.13;3.63;;;7.40;99.90;;;;;;5118796;27;20484;-80
2021/12/17 09:40:28;;;;;;;7.27;3.90;;;7.40;99.90;;;;;;5116066;27;20514;-80
2021/12/17 09:42:55;;;;;;;8.37;3.70;;;7.40;99.90;;;;;;5116406;27;20477;-81
2021/12/17 09:45:22;;;;;;;7.50;3.47;;;7.50;99.90;;;;;;5115935;27;20913;-80
2021/12/17 09:47:48;;;;;;;5.53;4.03;;;7.60;99.90;;;;;;5117150;27;20877;-80
2021/12/17 09:50:19;;;;;;;10.83;5.20;;;7.60;99.90;;;;;;5116721;27;20944;-81
2021/12/17 09:52:47;;;;;;;9.80;4.03;;;7.60;99.90;;;;;;5116212;27;20438;-80
2021/12/17 09:55:14;;;;;;;11.87;4.13;;;7.50;99.90;;;;;;5115818;27;20529;-81
2021/12/17 09:57:40;;;;;;;9.40;3.50;;;7.50;99.90;;;;;;5128282;27;21002;-81
2021/12/17 10:00:11;;;;;;;7.57;3.80;;;7.60;99.90;;;;;;5119639;27;20543;-80
2021/12/17 10:02:38;;;;;;;11.40;4.47;;;7.60;99.90;;;;;;5119300;27;20853;-80
2021/12/17 10:05:05;;;;;;;10.83;4.00;;;7.60;99.90;;;;;;5131804;27;20444;-81
2021/12/17 10:07:35;;;;;;;16.13;3.53;;;7.70;99.90;;;;;;5131580;27;20924;-81
2021/12/17 10:10:03;;;;;;;7.33;3.90;;;7.70;99.90;;;;;;5129877;27;20479;-80
2021/12/17 10:12:32;;;;;;;8.03;3.63;;;7.80;99.90;;;;;;5110941;27;20956;-79
2021/12/17 10:15:02;;;;;;;11.50;4.90;;;7.70;99.90;;;;;;5120299;27;20503;-80
2021/12/17 10:17:29;;;;;;;8.70;3.43;;;7.70;99.90;;;;;;5118586;27;20454;-82
2021/12/17 10:19:56;;;;;;;13.20;4.17;;;7.60;99.90;;;;;;5128533;27;20472;-81
2021/12/17 10:22:25;;;;;;;7.90;3.97;;;7.60;99.90;;;;;;5115584;27;20441;-82
2021/12/17 10:25:02;;;;;;;13.90;4.07;;;7.60;99.90;;;;;;5124470;27;20437;-81
2021/12/17 10:27:31;;;;;;;11.00;3.97;;;7.50;99.90;;;;;;5125688;27;20444;-79
2021/12/17 10:29:59;;;;;;;8.70;3.60;;;7.50;99.90;;;;;;5116056;27;20521;-84
2021/12/17 10:32:28;;;;;;;9.30;3.90;;;7.50;99.90;;;;;;5119623;27;20484;-80
2021/12/17 10:35:03;;;;;;;4.87;2.93;;;7.50;99.90;;;;;;5125627;27;20453;-80
2021/12/17 10:37:34;;;;;;;5.73;3.77;;;7.50;99.90;;;;;;5126208;27;20857;-80
2021/12/17 10:40:18;;;;;;;8.53;4.40;;;7.60;99.90;;;;;;5116438;27;20520;-78
2021/12/17 10:42:53;;;;;;;14.13;4.03;;;7.70;99.90;;;;;;5127209;27;20894;-78
2021/12/17 10:45:25;;;;;;;10.63;3.77;;;7.70;99.90;;;;;;5124828;27;20491;-78
2021/12/17 10:48:19;;;;;;;13.20;4.33;;;7.70;99.90;;;;;;5117332;27;20999;-78
2021/12/17 10:50:45;;;;;;;7.50;3.93;;;7.80;99.90;;;;;;5106432;27;20919;-78
2021/12/17 10:53:13;;;;;;;8.03;3.60;;;7.80;99.90;;;;;;5123018;27;20439;-78
2021/12/17 10:55:45;;;;;;;5.43;2.93;;;7.80;99.90;;;;;;5127529;27;20469;-79
2021/12/17 10:58:12;;;;;;;8.40;4.10;;;7.80;99.90;;;;;;5116587;28;20446;-78
2021/12/17 11:00:46;;;;;;;8.87;3.33;;;7.80;99.90;;;;;;5127486;27;20891;-78
2021/12/17 11:03:13;;;;;;;8.63;3.70;;;7.80;99.90;;;;;;5123470;27;20444;-78
2021/12/17 11:05:40;;;;;;;5.20;3.17;;;7.80;99.90;;;;;;5119050;28;20496;-78
2021/12/17 11:08:20;;;;;;;6.63;3.50;;;7.80;99.90;;;;;;5130103;27;20970;-78
2021/12/17 11:10:57;;;;;;;10.20;2.80;;;7.80;99.90;;;;;;5119975;28;20471;-78
2021/12/17 11:13:24;;;;;;;7.10;3.23;;;7.70;99.90;;;;;;5121055;27;20495;-78
2021/12/17 11:15:52;;;;;;;8.27;3.43;;;7.80;99.90;;;;;;5128718;28;20492;-79
2021/12/17 11:18:18;;;;;;;7.97;3.80;;;7.80;99.90;;;;;;5116553;28;20535;-78
2021/12/17 11:20:46;;;;;;;6.00;2.83;;;7.80;99.90;;;;;;5126616;27;20461;-78
2021/12/17 11:23:15;;;;;;;7.43;2.90;;;7.70;99.90;;;;;;5123358;28;20484;-78
2021/12/17 11:25:44;;;;;;;7.40;3.17;;;7.70;99.90;;;;;;5118475;28;20442;-79
2021/12/17 11:28:12;;;;;;;5.77;2.93;;;7.70;99.90;;;;;;5129363;28;20444;-79
2021/12/17 11:30:42;;;;;;;5.27;2.60;;;7.70;99.90;;;;;;5118617;27;20552;-78
2021/12/17 11:33:10;;;;;;;7.00;3.13;;;7.60;99.90;;;;;;5123333;28;20694;-78
2021/12/17 11:35:42;;;;;;;4.20;3.00;;;7.60;99.90;;;;;;5126591;27;20476;-78
2021/12/17 11:38:13;;;;;;;7.80;5.13;;;7.70;99.90;;;;;;5116130;28;20442;-78
2021/12/17 11:40:44;;;;;;;6.67;2.80;;;7.70;99.90;;;;;;5126807;27;20741;-78
2021/12/17 11:43:29;;;;;;;8.95;3.33;;;7.70;99.90;;;;;;5118610;27;20492;-78
2021/12/17 11:46:01;;;;;;;4.30;2.73;;;7.70;99.90;;;;;;5133406;27;20274;-78
2021/12/17 11:48:31;;;;;;;8.20;3.00;;;7.70;99.90;;;;;;5104538;27;20827;-78
2021/12/17 11:51:07;;;;;;;6.30;2.77;;;7.70;99.90;;;;;;5128201;27;20537;-78
2021/12/17 11:53:42;;;;;;;9.63;3.07;;;7.80;99.90;;;;;;5130235;27;20531;-78
2021/12/17 11:56:09;;;;;;;5.40;2.63;;;7.80;99.90;;;;;;5119872;27;20531;-79
2021/12/17 11:58:53;;;;;;;7.00;3.90;;;7.80;99.90;;;;;;5131575;27;20484;-78
2021/12/17 12:01:51;;;;;;;6.47;3.00;;;7.80;99.90;;;;;;5125151;27;20986;-78
2021/12/17 12:04:51;;;;;;;9.00;3.73;;;7.80;99.90;;;;;;5118822;27;20963;-78
2021/12/17 12:07:20;;;;;;;6.87;3.20;;;7.80;99.90;;;;;;5125120;27;20480;-78
2021/12/17 12:09:57;;;;;;;5.60;2.70;;;7.80;99.90;;;;;;5131415;27;20447;-78
2021/12/17 12:12:25;;;;;;;5.40;2.70;;;7.90;99.90;;;;;;5102891;27;20783;-79
2021/12/17 12:14:54;;;;;;;15.53;3.73;;;7.90;99.90;;;;;;5128856;27;20445;-79
2021/12/17 12:17:58;;;;;;;8.23;3.90;;;8.00;99.90;;;;;;5127693;27;20529;-78
2021/12/17 12:20:49;;;;;;;6.17;2.60;;;8.00;99.90;;;;;;5102976;27;20451;-78
2021/12/17 12:23:17;;;;;;;7.00;3.43;;;8.00;99.90;;;;;;5125262;27;20474;-78
2021/12/17 12:25:45;;;;;;;8.00;2.73;;;8.00;99.90;;;;;;5130929;27;20531;-78
2021/12/17 12:28:14;;;;;;;7.80;3.20;;;7.90;99.90;;;;;;5119358;27;20461;-78
2021/12/17 12:30:44;;;;;;;9.13;3.47;;;7.90;99.90;;;;;;5129871;27;20480;-78
2021/12/17 12:33:14;;;;;;;9.30;3.40;;;7.90;99.90;;;;;;5126288;27;20475;-78
2021/12/17 12:35:40;;;;;;;6.00;3.00;;;8.00;99.90;;;;;;5121550;27;20513;-78
2021/12/17 12:38:14;;;;;;;4.83;3.10;;;8.00;99.90;;;;;;5132485;27;20520;-79
2021/12/17 12:40:45;;;;;;;11.17;3.17;;;7.90;99.90;;;;;;5121593;27;20491;-78
2021/12/17 12:43:26;;;;;;;7.57;3.20;;;8.00;99.90;;;;;;5125348;27;20452;-79
2021/12/17 12:45:54;;;;;;;7.53;3.20;;;7.90;99.90;;;;;;5131923;27;20476;-78
2021/12/17 12:48:30;;;;;;;8.67;3.30;;;7.90;99.90;;;;;;5118776;27;20555;-78
2021/12/17 12:51:16;;;;;;;6.03;2.83;;;7.80;99.90;;;;;;5127558;27;20453;-78
2021/12/17 12:53:47;;;;;;;9.27;3.73;;;7.80;99.90;;;;;;5128970;27;20532;-78
2021/12/17 12:56:19;;;;;;;8.30;2.90;;;7.90;99.90;;;;;;5119208;27;20804;-78
2021/12/17 12:58:49;;;;;;;9.63;3.63;;;7.90;99.90;;;;;;5129087;27;20518;-78
2021/12/17 13:01:19;;;;;;;10.30;3.23;;;7.90;99.90;;;;;;5126241;27;20464;-78
2021/12/17 13:03:46;;;;;;;9.57;3.17;;;7.90;99.90;;;;;;5120321;27;20473;-78
2021/12/17 13:06:16;;;;;;;6.47;2.90;;;7.90;99.90;;;;;;5131802;27;20449;-79
2021/12/17 13:08:43;;;;;;;8.03;3.30;;;7.90;99.90;;;;;;5121593;27;20853;-78
2021/12/17 13:11:09;;;;;;;8.90;3.20;;;8.00;99.90;;;;;;5125277;27;20485;-78
2021/12/17 13:13:42;;;;;;;9.17;3.77;;;8.00;99.90;;;;;;5128784;27;20444;-79
2021/12/17 13:16:15;;;;;;;14.27;3.70;;;8.10;99.90;;;;;;5118244;27;20782;-78
2021/12/17 13:21:44;;;;;;;5.10;2.30;;;8.10;99.90;;;;;;5127667;27;20823;-78
2021/12/17 13:24:14;;;;;;;7.60;3.17;;;8.10;99.90;;;;;;5118162;27;20932;-78
2021/12/17 13:26:45;;;;;;;7.33;2.93;;;8.10;99.90;;;;;;5129049;27;20450;-78
2021/12/17 13:29:14;;;;;;;10.40;3.07;;;8.10;99.90;;;;;;5125174;27;20437;-78
2021/12/17 13:31:45;;;;;;;8.50;3.43;;;8.10;99.90;;;;;;5120426;27;20480;-78
2021/12/17 13:34:18;;;;;;;9.43;3.80;;;8.10;99.90;;;;;;5131678;27;20481;-78
2021/12/17 13:36:52;;;;;;;7.30;3.90;;;8.20;99.90;;;;;;5121087;27;20931;-78
2021/12/17 13:39:20;;;;;;;10.03;2.87;;;8.20;99.90;;;;;;5124023;27;20520;-78
2021/12/17 13:41:47;;;;;;;9.97;2.57;;;8.10;99.90;;;;;;5129656;27;20563;-78
2021/12/17 13:44:34;;;;;;;7.20;3.33;;;8.10;99.90;;;;;;5117803;27;20533;-78
2021/12/17 13:47:16;;;;;;;7.90;2.93;;;8.10;99.90;;;;;;5125684;27;20556;-78
2021/12/17 13:49:47;;;;;;;7.90;3.23;;;8.10;99.90;;;;;;5129051;27;20531;-78
2021/12/17 13:52:14;;;;;;;9.60;5.00;;;8.00;99.90;;;;;;5113773;27;20497;-79
2021/12/17 13:54:41;;;;;;;2.70;2.40;;;8.00;99.90;;;;;;5109477;28;21016;-78
2021/12/17 13:57:11;;;;;;;10.23;3.37;;;8.00;99.90;;;;;;5115019;27;20521;-78
2021/12/17 13:59:37;;;;;;;8.83;3.80;;;8.00;99.90;;;;;;5118577;27;20553;-78
2021/12/17 14:02:11;;;;;;;14.00;2.80;;;8.10;99.90;;;;;;5114320;27;20473;-78
2021/12/17 14:04:38;;;;;;;11.13;3.53;;;8.10;99.90;;;;;;5118327;27;20494;-78
2021/12/17 14:07:07;;;;;;;7.60;3.50;;;8.10;99.90;;;;;;5125790;27;20482;-78
2021/12/17 14:09:34;;;;;;;5.77;3.37;;;8.10;99.90;;;;;;5120430;27;20503;-78
2021/12/17 14:12:12;;;;;;;6.70;3.50;;;8.10;99.90;;;;;;5130295;27;20539;-78
2021/12/17 14:14:39;;;;;;;7.30;2.83;;;8.10;99.90;;;;;;5103137;27;20456;-78
2021/12/17 14:17:08;;;;;;;6.90;3.10;;;8.00;99.90;;;;;;5125514;27;20533;-78
2021/12/17 14:19:40;;;;;;;16.67;5.27;;;8.00;99.90;;;;;;5117493;27;20484;-79
2021/12/17 14:22:25;;;;;;;8.50;2.93;;;8.00;99.90;;;;;;5114142;27;20829;-77
2021/12/17 14:24:51;;;;;;;13.10;3.60;;;8.00;99.90;;;;;;5127181;27;20924;-77
2021/12/17 14:27:18;;;;;;;6.50;2.50;;;8.00;99.90;;;;;;5123700;27;20480;-77
2021/12/17 14:29:44;;;;;;;9.00;2.57;;;8.00;99.90;;;;;;5120175;27;20541;-77
2021/12/17 14:32:16;;;;;;;7.07;2.30;;;7.90;99.90;;;;;;5130273;27;21036;-77
2021/12/17 14:34:43;;;;;;;6.60;2.80;;;7.90;99.90;;;;;;5118649;27;20825;-76
2021/12/17 14:37:09;;;;;;;4.80;2.20;;;7.80;99.90;;;;;;5124736;27;20533;-76
2021/12/17 14:39:41;;;;;;;6.70;2.27;;;7.80;99.90;;;;;;5126178;27;20524;-77
2021/12/17 14:42:10;;;;;;;6.60;2.93;;;7.80;99.90;;;;;;5116596;27;20491;-76
2021/12/17 14:44:46;;;;;;;10.40;3.13;;;7.80;99.90;;;;;;5102096;27;20445;-76
2021/12/17 14:47:18;;;;;;;5.53;2.63;;;7.80;99.90;;;;;;5123658;27;20469;-77
2021/12/17 15:00:57;;;;;;;8.63;2.70;;;7.60;99.90;;;;;;5119878;27;20429;-77
2021/12/17 15:03:29;;;;;;;5.70;2.77;;;7.60;99.90;;;;;;5122427;27;20480;-76
2021/12/17 15:05:57;;;;;;;11.80;3.83;;;7.60;99.90;;;;;;5128686;27;20453;-77
2021/12/17 15:08:24;;;;;;;5.90;2.50;;;7.60;99.90;;;;;;5116492;27;20956;-77
2021/12/17 15:10:52;;;;;;;9.00;3.87;;;7.60;99.90;;;;;;5126959;28;20441;-77
2021/12/17 15:13:19;;;;;;;7.10;2.97;;;7.60;99.90;;;;;;5123681;28;20543;-77
2021/12/17 15:15:46;;;;;;;5.60;2.90;;;7.60;99.90;;;;;;5119010;28;20541;-77
2021/12/17 15:18:15;;;;;;;9.60;3.13;;;7.60;99.90;;;;;;5134250;27;20533;-77
2021/12/17 15:20:44;;;;;;;8.17;3.70;;;7.60;99.90;;;;;;5122561;27;20967;-76
2021/12/17 15:23:10;;;;;;;14.20;3.43;;;7.60;99.90;;;;;;5128421;27;20829;-76
2021/12/17 15:25:39;;;;;;;9.13;3.73;;;7.60;99.90;;;;;;5130042;27;20528;-77
2021/12/17 15:28:07;;;;;;;8.27;3.37;;;7.60;99.90;;;;;;5120513;27;20813;-76
2021/12/17 15:30:37;;;;;;;7.90;3.33;;;7.60;99.90;;;;;;5133102;27;20477;-78
2021/12/17 15:33:03;;;;;;;9.07;3.37;;;7.60;99.90;;;;;;5124232;27;20474;-81